Accueil
METAR-TAF:

METAR-TAF

Aéroports :

Armilla

Grenade, Espagne

latitude: 37-08N, longitude: 003-38-08W, altitude: 700 m

Observation

Le bulletin a été fait il y a 1 heure et 54 minutes, à 14:00 UTC
Vent 3 kt de direction variable
Température 15°C
Humidité 59%
Pression 1020 hPa
Visibilité 10 km ou plus
pas de nuages en-dessous de 1500 mètres et pas de cumulonimbus.

METAR: LEGA 011400Z VRB03KT CAVOK 15/07 Q1020

Heure: 16:54 (15:54 UTC)

Prévision

Le bulletin a été fait il y a 4 heures et 54 minutes, à 11:00 UTC
Prévision valable du 01 à 12 UTC au 02 à 12 UTC
Vent 3 kt de direction variable
Visibilité 10 km ou plus
pas de nuages en-dessous de 1500 mètres et pas de cumulonimbus.

TAF: LEGA 011100Z 0112/0212 VRB03KT CAVOK TX15/0115Z TN03/0203Z

Observations et prévisions météorologiques de plus de 4000 aéroports (messages METAR et TAF).

Les stations disponibles sont représentées par des disques jaunes et rouges sur la carte.

Passer la souris dessus pour voir le nom de la station.

Cliquer dessus pour voir les observations et prévisions météorologiques.

Pour changer de carte: cliquez sur les boutons verts avec une croix noire pour zoomer, sur le bouton vert avec un tiret pour effectuer un zoom arrière, ou sur les flèches vertes pour les cartes adjacentes.


METAR-TAF: